Time;durP1;ratioP1;P1;durP2;ratioP2;P2;SDS_P1;SDS_P2;PMS_P1;PMS_P2;Temp;Humidity;BMP_temperature;BMP_pressure;BME280_temperature;BME280_humidity;BME280_pressure;Samples;Min_cycle;Max_cycle;Signal;HPM_P1;HPM_P2
2023/12/07 00:01:09;;;;;;;143.80;82.25;;;128.50;2252.80;;;;;;5070713;28;20502;-65
2023/12/07 00:03:35;;;;;;;184.30;113.00;;;128.40;2252.80;;;;;;5053305;28;20074;-64
2023/12/07 00:06:01;;;;;;;153.95;88.55;;;128.50;2252.80;;;;;;5063123;28;20079;-64
2023/12/07 00:08:27;;;;;;;151.40;89.30;;;128.50;2252.80;;;;;;5065363;28;20780;-63
2023/12/07 00:10:52;;;;;;;193.07;104.30;;;128.40;2252.80;;;;;;5071479;28;20107;-63
2023/12/07 00:13:18;;;;;;;228.15;130.32;;;128.40;2252.80;;;;;;5069862;28;20505;-63
2023/12/07 00:15:44;;;;;;;213.60;125.80;;;128.20;2252.80;;;;;;5065286;28;20039;-64
2023/12/07 00:18:10;;;;;;;240.77;143.25;;;128.30;2252.80;;;;;;5070617;28;20043;-64
2023/12/07 00:20:35;;;;;;;248.13;142.60;;;128.00;2252.80;;;;;;5070915;28;20048;-63
2023/12/07 00:23:01;;;;;;;261.20;147.90;;;128.00;2252.80;;;;;;5066777;28;20091;-63
2023/12/07 00:25:27;;;;;;;331.83;173.50;;;103.30;2227.20;;;;;;5057186;28;20040;-63
2023/12/07 00:27:52;;;;;;;297.08;166.70;;;128.00;2252.80;;;;;;5070979;28;20032;-64
2023/12/07 00:30:18;;;;;;;267.35;154.82;;;128.20;2252.80;;;;;;5070924;28;20036;-64
2023/12/07 00:32:44;;;;;;;254.65;143.18;;;128.20;2252.80;;;;;;5071085;28;20028;-64
2023/12/07 00:35:10;;;;;;;234.25;137.25;;;128.40;2252.80;;;;;;5071071;28;20035;-63
2023/12/07 00:37:36;;;;;;;217.85;124.15;;;128.40;2252.80;;;;;;5071388;28;20025;-63
2023/12/07 00:40:03;;;;;;;264.50;148.07;;;128.60;2252.80;;;;;;5070484;28;20384;-63
2023/12/07 00:42:30;;;;;;;233.30;131.60;;;128.40;2252.80;;;;;;5070325;28;20671;-63
2023/12/07 00:44:55;;;;;;;229.40;134.60;;;128.60;2252.80;;;;;;5070578;28;20122;-63
2023/12/07 00:47:21;;;;;;;212.00;132.25;;;128.60;2252.80;;;;;;5058642;28;20052;-62
2023/12/07 00:49:47;;;;;;;165.20;100.65;;;128.60;2252.80;;;;;;5059561;28;20036;-64
2023/12/07 00:52:13;;;;;;;163.65;93.75;;;128.60;2252.80;;;;;;5070630;28;20113;-63
2023/12/07 00:54:39;;;;;;;150.85;79.15;;;128.60;2252.80;;;;;;5070431;28;20036;-63
2023/12/07 00:57:06;;;;;;;137.85;80.18;;;128.40;2252.80;;;;;;5070551;28;20024;-63
2023/12/07 00:59:33;;;;;;;114.50;63.47;;;128.50;2252.80;;;;;;5069756;28;20382;-63
2023/12/07 01:02:08;;;;;;;195.05;110.05;;;128.40;2252.80;;;;;;5069864;28;20118;-63
2023/12/07 01:04:34;;;;;;;210.55;121.40;;;128.40;2252.80;;;;;;5070253;28;20039;-63
2023/12/07 01:07:00;;;;;;;238.40;122.53;;;128.50;2252.80;;;;;;5070327;28;20028;-64
2023/12/07 01:09:26;;;;;;;209.38;119.00;;;128.30;2252.80;;;;;;5070872;28;20413;-63
2023/12/07 01:11:52;;;;;;;243.18;144.85;;;128.30;2252.80;;;;;;5058118;28;20511;-63
2023/12/07 01:14:19;;;;;;;221.02;126.30;;;128.50;2252.80;;;;;;5069872;28;20063;-64
2023/12/07 01:16:45;;;;;;;201.95;118.07;;;128.40;2252.80;;;;;;5070248;28;20032;-62
2023/12/07 01:19:14;;;;;;;221.75;118.68;;;128.40;2252.80;;;;;;5069786;28;20463;-64
2023/12/07 01:21:41;;;;;;;200.20;109.60;;;128.50;2252.80;;;;;;5063555;28;20032;-63
2023/12/07 01:24:07;;;;;;;157.00;91.95;;;128.60;2252.80;;;;;;5069822;28;20029;-63
2023/12/07 01:26:33;;;;;;;139.05;76.93;;;128.20;2252.80;;;;;;5069939;28;20036;-64
2023/12/07 01:28:59;;;;;;;110.32;61.38;;;128.50;2252.80;;;;;;5069766;28;20467;-64
2023/12/07 01:31:24;;;;;;;152.90;90.93;;;128.40;2252.80;;;;;;5069930;28;20524;-62
2023/12/07 01:33:50;;;;;;;192.95;110.35;;;128.30;2252.80;;;;;;5069665;28;20078;-63
2023/12/07 01:36:16;;;;;;;195.15;111.03;;;128.30;2252.80;;;;;;5070147;28;20052;-62
2023/12/07 01:38:43;;;;;;;181.77;107.80;;;128.20;2252.80;;;;;;5069333;28;20025;-62
2023/12/07 01:41:09;;;;;;;163.10;100.72;;;128.20;2252.80;;;;;;5069549;28;20036;-63
2023/12/07 01:43:35;;;;;;;156.60;91.82;;;128.20;2252.80;;;;;;5069781;28;20520;-63
2023/12/07 01:46:01;;;;;;;167.45;91.95;;;128.10;2252.80;;;;;;5069032;28;20044;-63
2023/12/07 01:48:28;;;;;;;165.00;94.50;;;128.30;2252.80;;;;;;5069355;28;20382;-63
2023/12/07 01:50:56;;;;;;;162.60;90.80;;;128.10;2252.80;;;;;;5069512;28;20032;-63
2023/12/07 01:53:23;;;;;;;158.00;91.28;;;128.00;2252.80;;;;;;5069775;28;20048;-63
2023/12/07 01:55:51;;;;;;;172.85;100.50;;;128.20;2252.80;;;;;;5069231;28;20024;-62
2023/12/07 01:58:18;;;;;;;173.30;95.20;;;128.20;2252.80;;;;;;5065304;28;20020;-64
2023/12/07 02:00:45;;;;;;;160.30;88.47;;;128.20;2252.80;;;;;;5062886;28;20021;-63
2023/12/07 02:03:12;;;;;;;157.73;88.70;;;128.00;2252.80;;;;;;5069213;28;20111;-64
2023/12/07 02:05:40;;;;;;;160.38;84.28;;;128.30;2252.80;;;;;;5069066;28;20413;-64
2023/12/07 02:08:05;;;;;;;145.60;82.65;;;128.30;2252.80;;;;;;5069385;28;20059;-63
2023/12/07 02:10:31;;;;;;;147.18;89.50;;;128.40;2252.80;;;;;;5068972;28;20060;-65
2023/12/07 02:12:57;;;;;;;152.52;87.63;;;128.50;2252.80;;;;;;5069142;28;20150;-64
2023/12/07 02:15:23;;;;;;;162.00;88.68;;;128.40;2252.80;;;;;;5069269;28;20028;-63
2023/12/07 02:17:54;;;;;;;169.65;93.07;;;128.30;2252.80;;;;;;5068965;28;20514;-63
2023/12/07 02:20:30;;;;;;;157.52;92.20;;;128.00;2252.80;;;;;;5069144;28;20028;-63
2023/12/07 02:23:01;;;;;;;165.80;92.95;;;103.20;2227.20;;;;;;5069180;28;20027;-62
2023/12/07 02:26:07;;;;;;;159.18;90.63;;;103.20;2227.20;;;;;;5068824;28;20032;-63
2023/12/07 02:28:32;;;;;;;182.10;103.03;;;103.10;2227.20;;;;;;5007135;28;20497;-62
2023/12/07 02:30:58;;;;;;;201.15;118.45;;;103.10;2227.20;;;;;;5006775;28;20026;-64
2023/12/07 02:33:24;;;;;;;222.32;130.27;;;103.10;2227.20;;;;;;5007039;28;20042;-63
2023/12/07 02:35:50;;;;;;;202.07;115.97;;;103.20;2227.20;;;;;;5007533;28;20042;-63
2023/12/07 02:38:17;;;;;;;196.18;112.25;;;103.30;2227.20;;;;;;5012708;28;20113;-62
2023/12/07 02:40:46;;;;;;;217.75;122.38;;;128.00;2252.80;;;;;;5007251;28;20108;-62
2023/12/07 02:43:12;;;;;;;218.98;124.93;;;103.30;2227.20;;;;;;5006952;28;20025;-63
2023/12/07 02:45:39;;;;;;;227.10;128.60;;;103.30;2227.20;;;;;;5006715;28;20049;-63
2023/12/07 02:48:05;;;;;;;256.55;142.82;;;128.00;2252.80;;;;;;5006792;28;20042;-63
2023/12/07 02:50:30;;;;;;;213.85;131.50;;;128.00;2252.80;;;;;;5006808;28;20369;-63
2023/12/07 02:52:56;;;;;;;227.50;130.02;;;128.00;2252.80;;;;;;5006931;28;20517;-63
2023/12/07 02:55:22;;;;;;;247.45;137.23;;;128.00;2252.80;;;;;;5006807;28;20457;-64
2023/12/07 02:57:49;;;;;;;233.48;137.80;;;103.30;2227.20;;;;;;5005840;28;20025;-66
2023/12/07 03:00:15;;;;;;;247.55;138.30;;;103.10;2227.20;;;;;;5009795;28;20026;-63
2023/12/07 03:02:41;;;;;;;231.60;129.35;;;103.10;2227.20;;;;;;5010071;28;20487;-63
2023/12/07 03:05:07;;;;;;;231.18;129.95;;;103.10;2227.20;;;;;;5031890;28;20041;-64
2023/12/07 03:07:34;;;;;;;247.43;134.07;;;103.10;2227.20;;;;;;5073557;28;20021;-64
2023/12/07 03:10:00;;;;;;;214.88;125.30;;;103.10;2227.20;;;;;;5065770;28;20467;-63
2023/12/07 03:12:26;;;;;;;189.85;113.40;;;103.20;2227.20;;;;;;5070608;28;20059;-63
2023/12/07 03:14:51;;;;;;;203.57;116.25;;;103.10;2227.20;;;;;;5072212;28;20479;-63
2023/12/07 03:17:17;;;;;;;220.38;123.82;;;103.30;2227.20;;;;;;5072437;28;20021;-64
2023/12/07 03:19:43;;;;;;;217.30;120.88;;;128.10;2252.80;;;;;;5072871;28;20376;-63
2023/12/07 03:22:09;;;;;;;202.45;121.25;;;128.10;2252.80;;;;;;5072167;28;20479;-64
2023/12/07 03:24:38;;;;;;;224.00;118.97;;;128.10;2252.80;;;;;;5072672;28;20126;-63
2023/12/07 03:27:05;;;;;;;204.45;117.45;;;128.10;2252.80;;;;;;5072609;28;20020;-63
2023/12/07 03:29:31;;;;;;;183.98;107.85;;;128.10;2252.80;;;;;;5071687;28;20032;-63
2023/12/07 03:31:57;;;;;;;183.98;105.53;;;128.00;2252.80;;;;;;5058608;28;20402;-64
2023/12/07 03:34:24;;;;;;;166.32;97.00;;;128.20;2252.80;;;;;;5072390;28;20028;-64
2023/12/07 03:36:49;;;;;;;143.20;86.20;;;128.30;2252.80;;;;;;5071823;28;20086;-64
2023/12/07 03:39:18;;;;;;;134.77;81.90;;;128.40;2252.80;;;;;;5072467;28;20028;-64
2023/12/07 03:41:44;;;;;;;144.23;83.63;;;128.50;2252.80;;;;;;5072262;28;20021;-63
2023/12/07 03:44:10;;;;;;;153.75;93.28;;;128.50;2252.80;;;;;;5071890;28;20077;-63
2023/12/07 03:46:36;;;;;;;173.95;100.75;;;128.60;2252.80;;;;;;5069119;28;20051;-63
2023/12/07 03:49:02;;;;;;;161.85;100.10;;;128.60;2252.80;;;;;;5056810;28;20021;-63
2023/12/07 03:51:28;;;;;;;192.57;108.35;;;128.40;2252.80;;;;;;5071623;28;20031;-64
2023/12/07 03:53:54;;;;;;;194.90;113.43;;;128.40;2252.80;;;;;;5071999;28;20105;-63
2023/12/07 03:56:24;;;;;;;189.75;112.53;;;128.40;2252.80;;;;;;5071311;28;20025;-63
2023/12/07 03:58:49;;;;;;;192.70;113.63;;;128.40;2252.80;;;;;;5071511;28;20016;-64
2023/12/07 04:01:15;;;;;;;202.48;114.30;;;128.60;2252.80;;;;;;5071660;28;20035;-64
2023/12/07 04:03:41;;;;;;;173.80;106.00;;;128.60;2252.80;;;;;;5071437;28;20105;-63
2023/12/07 04:06:07;;;;;;;190.73;109.72;;;128.60;2252.80;;;;;;5071616;28;20024;-65
2023/12/07 04:08:33;;;;;;;167.63;98.28;;;128.70;2252.80;;;;;;5071771;28;20017;-63
2023/12/07 04:10:58;;;;;;;180.15;100.70;;;128.60;2252.80;;;;;;5071335;28;20027;-63
2023/12/07 04:13:24;;;;;;;169.65;103.70;;;128.60;2252.80;;;;;;5071044;28;20075;-63
2023/12/07 04:15:50;;;;;;;185.38;106.90;;;128.60;2252.80;;;;;;5070439;28;20029;-63
2023/12/07 04:18:16;;;;;;;152.88;93.38;;;128.60;2252.80;;;;;;5070717;28;20379;-63
2023/12/07 04:20:41;;;;;;;172.68;99.72;;;128.60;2252.80;;;;;;5070996;28;20028;-64
2023/12/07 04:23:07;;;;;;;149.35;87.80;;;128.50;2252.80;;;;;;5064947;28;20029;-64
2023/12/07 04:25:33;;;;;;;136.98;81.65;;;128.60;2252.80;;;;;;5065567;28;20360;-63
2023/12/07 04:27:59;;;;;;;125.43;80.13;;;128.70;2252.80;;;;;;5057999;28;20486;-64
2023/12/07 04:30:25;;;;;;;131.20;74.78;;;128.60;2252.80;;;;;;5070908;28;20024;-63
2023/12/07 04:32:51;;;;;;;146.05;86.28;;;128.60;2252.80;;;;;;5070866;28;20027;-64
2023/12/07 04:35:16;;;;;;;139.32;84.60;;;128.60;2252.80;;;;;;5071192;28;20028;-63
2023/12/07 04:37:42;;;;;;;139.40;82.95;;;128.60;2252.80;;;;;;5071038;28;20024;-63
2023/12/07 04:40:10;;;;;;;147.32;84.68;;;128.60;2252.80;;;;;;5070812;28;20023;-64
2023/12/07 04:42:36;;;;;;;154.57;82.35;;;128.60;2252.80;;;;;;5071110;28;20050;-63
2023/12/07 04:45:02;;;;;;;135.65;81.47;;;128.60;2252.80;;;;;;5071248;28;20479;-63
2023/12/07 04:47:28;;;;;;;138.52;84.97;;;128.60;2252.80;;;;;;5070508;28;20020;-63
2023/12/07 04:49:54;;;;;;;127.70;76.25;;;128.60;2252.80;;;;;;5071629;28;20024;-71
2023/12/07 04:52:20;;;;;;;122.63;74.30;;;128.60;2252.80;;;;;;5070409;28;20020;-63
2023/12/07 04:54:45;;;;;;;100.53;59.17;;;128.50;2252.80;;;;;;5067117;28;20089;-64
2023/12/07 04:57:11;;;;;;;95.60;55.63;;;128.50;2252.80;;;;;;5050662;28;20463;-63
2023/12/07 04:59:37;;;;;;;110.38;63.28;;;128.50;2252.80;;;;;;5057777;28;20021;-64
2023/12/07 05:02:03;;;;;;;95.10;55.30;;;128.40;2252.80;;;;;;5070328;28;20475;-63
2023/12/07 05:04:28;;;;;;;98.13;55.03;;;128.50;2252.80;;;;;;5069886;28;20021;-63
2023/12/07 05:06:54;;;;;;;69.63;41.38;;;128.60;2252.80;;;;;;5070688;28;20028;-64
2023/12/07 05:09:21;;;;;;;50.28;32.63;;;128.50;2252.80;;;;;;5069884;28;20020;-64
2023/12/07 05:11:47;;;;;;;66.30;41.25;;;128.40;2252.80;;;;;;5070040;28;20459;-62
2023/12/07 05:14:13;;;;;;;44.97;29.67;;;128.50;2252.80;;;;;;5051779;28;20028;-64
2023/12/07 05:16:38;;;;;;;40.80;23.80;;;128.60;2252.80;;;;;;5069992;28;20017;-63
2023/12/07 05:19:04;;;;;;;47.33;29.63;;;128.70;2252.80;;;;;;5070080;28;20020;-63
2023/12/07 05:21:30;;;;;;;30.17;17.80;;;128.60;2252.80;;;;;;5069805;28;20362;-64
2023/12/07 05:23:55;;;;;;;37.47;32.05;;;128.50;2252.80;;;;;;5070023;28;20110;-63
2023/12/07 05:26:21;;;;;;;28.33;17.73;;;128.50;2252.80;;;;;;5069597;28;20463;-64
2023/12/07 05:28:48;;;;;;;31.40;19.15;;;128.40;2252.80;;;;;;5061116;28;20025;-64
2023/12/07 05:31:20;;;;;;;30.75;18.63;;;128.50;2252.80;;;;;;5065679;28;20028;-64
2023/12/07 05:33:46;;;;;;;22.53;14.17;;;128.50;2252.80;;;;;;5069713;28;20043;-64
2023/12/07 05:36:12;;;;;;;25.00;15.70;;;128.50;2252.80;;;;;;5069949;28;20021;-64
2023/12/07 05:38:38;;;;;;;20.20;14.10;;;128.60;2252.80;;;;;;5069525;28;20091;-64
2023/12/07 05:41:04;;;;;;;19.75;12.77;;;128.50;2252.80;;;;;;5069515;28;20036;-63
2023/12/07 05:43:30;;;;;;;18.67;12.60;;;128.50;2252.80;;;;;;5069602;28;20025;-64
2023/12/07 05:45:56;;;;;;;31.25;20.08;;;128.50;2252.80;;;;;;5069480;28;20556;-64
2023/12/07 05:48:22;;;;;;;17.10;11.15;;;128.50;2252.80;;;;;;5069633;28;20028;-63
2023/12/07 05:50:49;;;;;;;15.00;10.27;;;128.50;2252.80;;;;;;5069445;28;20059;-63
2023/12/07 05:53:15;;;;;;;16.00;10.55;;;128.60;2252.80;;;;;;5071759;28;20048;-64
2023/12/07 05:55:40;;;;;;;19.40;11.18;;;128.60;2252.80;;;;;;5072226;28;20039;-64
2023/12/07 05:58:06;;;;;;;16.27;10.40;;;128.60;2252.80;;;;;;5073198;28;20025;-67
2023/12/07 06:00:32;;;;;;;18.13;11.65;;;128.50;2252.80;;;;;;5072360;28;20055;-63
2023/12/07 06:02:58;;;;;;;16.98;11.57;;;128.60;2252.80;;;;;;5063981;28;20032;-63
2023/12/07 06:05:23;;;;;;;21.20;11.05;;;128.60;2252.80;;;;;;5069427;28;20040;-64
2023/12/07 06:07:49;;;;;;;17.25;10.40;;;128.60;2252.80;;;;;;5056682;28;20383;-62
2023/12/07 06:10:15;;;;;;;15.27;10.02;;;128.60;2252.80;;;;;;5067512;28;20029;-63
2023/12/07 06:12:41;;;;;;;13.77;9.65;;;128.60;2252.80;;;;;;5062753;28;20044;-64
2023/12/07 06:15:07;;;;;;;14.25;10.48;;;128.60;2252.80;;;;;;5069607;28;20178;-63
2023/12/07 06:17:36;;;;;;;16.98;11.40;;;128.70;2252.80;;;;;;5069571;28;20020;-64
2023/12/07 06:20:03;;;;;;;12.85;8.77;;;128.70;2252.80;;;;;;5069119;28;20081;-65
2023/12/07 06:22:29;;;;;;;12.38;9.88;;;128.60;2252.80;;;;;;5069404;28;20024;-64
2023/12/07 06:24:55;;;;;;;11.70;8.65;;;128.60;2252.80;;;;;;5069709;28;20040;-65
2023/12/07 06:27:20;;;;;;;13.98;9.73;;;128.50;2252.80;;;;;;5069454;28;20025;-64
2023/12/07 06:29:46;;;;;;;12.63;7.82;;;128.50;2252.80;;;;;;5069436;28;20051;-63
2023/12/07 06:32:12;;;;;;;18.90;11.75;;;128.60;2252.80;;;;;;5063015;28;20387;-63
2023/12/07 06:34:41;;;;;;;14.10;11.57;;;128.60;2252.80;;;;;;5069010;28;20028;-64
2023/12/07 06:37:07;;;;;;;15.43;10.55;;;128.60;2252.80;;;;;;5069524;28;20024;-62
2023/12/07 06:39:32;;;;;;;17.27;11.30;;;128.60;2252.80;;;;;;5070433;28;20081;-64
2023/12/07 06:41:59;;;;;;;14.40;10.20;;;128.70;2252.80;;;;;;5073077;28;20090;-64
2023/12/07 06:44:25;;;;;;;15.68;11.48;;;128.70;2252.80;;;;;;5072894;28;20075;-63
2023/12/07 06:46:51;;;;;;;13.82;8.68;;;128.70;2252.80;;;;;;5072954;28;20064;-62
2023/12/07 06:49:17;;;;;;;13.32;9.02;;;128.70;2252.80;;;;;;5072815;28;20027;-63
2023/12/07 06:51:42;;;;;;;16.42;11.90;;;128.80;2252.80;;;;;;5072793;28;20028;-63
2023/12/07 06:54:08;;;;;;;20.58;13.35;;;128.80;2252.80;;;;;;5072871;28;20035;-63
2023/12/07 06:56:34;;;;;;;18.23;12.68;;;128.80;2252.80;;;;;;5073087;28;20024;-67
2023/12/07 06:59:00;;;;;;;40.60;17.13;;;128.80;2252.80;;;;;;5072573;28;20040;-69
2023/12/07 07:01:26;;;;;;;15.73;10.63;;;128.90;2252.80;;;;;;5071079;28;20036;-67
2023/12/07 07:03:52;;;;;;;24.02;14.60;;;128.90;2252.80;;;;;;5068268;28;20487;-67
2023/12/07 07:06:17;;;;;;;22.42;16.95;;;153.60;2252.80;;;;;;5072923;28;20586;-68
2023/12/07 07:08:43;;;;;;;33.28;21.92;;;128.90;2252.80;;;;;;5072842;28;20025;-68
2023/12/07 07:11:15;;;;;;;15.35;10.60;;;128.90;2252.80;;;;;;5072758;28;20040;-70
2023/12/07 07:13:41;;;;;;;21.73;13.20;;;153.60;2252.80;;;;;;5072245;28;20044;-67
2023/12/07 07:16:08;;;;;;;21.83;17.33;;;153.60;2252.80;;;;;;5072937;28;20028;-70
2023/12/07 07:18:35;;;;;;;31.05;23.65;;;153.70;2252.80;;;;;;5072699;28;20028;-68
2023/12/07 07:21:01;;;;;;;23.98;17.40;;;153.70;2252.80;;;;;;5072387;28;20040;-68
2023/12/07 07:23:26;;;;;;;17.83;12.93;;;153.70;2252.80;;;;;;5072366;28;20570;-68
2023/12/07 07:25:52;;;;;;;13.63;9.35;;;153.70;2252.80;;;;;;5072330;28;20048;-67
2023/12/07 07:28:18;;;;;;;15.00;10.07;;;153.70;2252.80;;;;;;5072097;28;20024;-66
2023/12/07 07:30:43;;;;;;;15.57;10.50;;;153.60;2252.80;;;;;;5072385;28;20021;-68
2023/12/07 07:33:09;;;;;;;21.75;15.65;;;153.70;2252.80;;;;;;5066274;28;20462;-69
2023/12/07 07:35:35;;;;;;;15.63;11.43;;;153.70;2252.80;;;;;;5072221;28;20023;-66
2023/12/07 07:38:01;;;;;;;27.00;20.73;;;153.60;2252.80;;;;;;5071884;28;20028;-69
2023/12/07 07:40:26;;;;;;;28.15;20.17;;;153.70;2252.80;;;;;;5071511;28;20024;-68
2023/12/07 07:42:52;;;;;;;16.38;9.93;;;153.70;2252.80;;;;;;5067552;28;20016;-69
2023/12/07 07:45:18;;;;;;;13.27;9.57;;;153.60;2252.80;;;;;;5070613;28;20538;-68
2023/12/07 07:47:44;;;;;;;16.48;10.77;;;153.60;2252.80;;;;;;5071708;28;20021;-69
2023/12/07 07:50:11;;;;;;;15.77;11.77;;;128.90;2252.80;;;;;;5071586;28;20091;-68
2023/12/07 07:52:36;;;;;;;14.68;10.98;;;153.70;2252.80;;;;;;5071540;28;20103;-69
2023/12/07 07:55:04;;;;;;;12.20;8.57;;;153.60;2252.80;;;;;;5071445;28;20101;-67
2023/12/07 07:57:30;;;;;;;14.63;11.93;;;153.70;2252.80;;;;;;5061876;28;20036;-68
2023/12/07 07:59:57;;;;;;;15.13;9.85;;;153.70;2252.80;;;;;;5071539;28;20103;-66
2023/12/07 08:02:23;;;;;;;18.05;10.23;;;153.70;2252.80;;;;;;5071542;28;20028;-66
2023/12/07 08:04:51;;;;;;;13.27;9.38;;;153.80;2252.80;;;;;;5071268;28;20029;-67
2023/12/07 08:07:17;;;;;;;15.27;8.90;;;153.80;2252.80;;;;;;5071311;28;20040;-68
2023/12/07 08:09:43;;;;;;;16.30;13.45;;;153.80;2252.80;;;;;;5065340;28;20028;-69
2023/12/07 08:12:08;;;;;;;19.48;11.25;;;153.90;2252.80;;;;;;5059362;28;20128;-69
2023/12/07 08:14:37;;;;;;;12.88;8.57;;;154.10;2252.80;;;;;;5072092;28;20056;-69
2023/12/07 08:17:03;;;;;;;11.80;8.43;;;154.10;2252.80;;;;;;5071355;28;20020;-68
2023/12/07 08:19:29;;;;;;;14.75;9.50;;;154.20;2252.80;;;;;;5071213;28;20157;-68
2023/12/07 08:21:55;;;;;;;20.25;13.27;;;154.30;2252.80;;;;;;5071245;28;20044;-68
2023/12/07 08:24:21;;;;;;;13.30;8.75;;;154.50;2252.80;;;;;;5070097;28;20081;-68
2023/12/07 08:26:47;;;;;;;13.45;9.60;;;179.30;2252.80;;;;;;5071077;28;20039;-67
2023/12/07 08:29:13;;;;;;;12.25;8.98;;;154.50;2252.80;;;;;;5071547;28;20032;-69
2023/12/07 08:31:40;;;;;;;17.63;10.55;;;179.40;2252.80;;;;;;5070618;28;20024;-69
2023/12/07 08:34:06;;;;;;;17.50;12.85;;;179.40;2252.80;;;;;;5071458;28;20077;-69
2023/12/07 08:36:32;;;;;;;17.33;12.30;;;179.80;2252.80;;;;;;5070794;28;20446;-69
2023/12/07 08:38:57;;;;;;;15.55;10.38;;;179.80;2252.80;;;;;;5071136;28;20015;-68
2023/12/07 08:41:23;;;;;;;16.67;11.90;;;179.80;2252.80;;;;;;5070690;28;20027;-67
2023/12/07 08:43:49;;;;;;;18.48;14.48;;;179.80;2252.80;;;;;;5066948;28;20025;-69
2023/12/07 08:46:15;;;;;;;11.88;8.38;;;179.70;2252.80;;;;;;5068711;28;20374;-69
2023/12/07 08:48:41;;;;;;;15.57;11.90;;;179.90;2252.80;;;;;;5070895;28;20029;-70
2023/12/07 08:51:08;;;;;;;19.73;11.20;;;180.00;2252.80;;;;;;5070808;28;20434;-69
2023/12/07 08:53:35;;;;;;;33.53;20.00;;;180.00;2252.80;;;;;;5070878;28;20063;-69
2023/12/07 08:56:02;;;;;;;19.63;14.98;;;204.80;2252.80;;;;;;5070482;28;20023;-69
2023/12/07 08:58:27;;;;;;;15.32;8.27;;;204.80;2252.80;;;;;;5070750;28;20070;-69
2023/12/07 09:00:53;;;;;;;13.75;9.88;;;180.10;2252.80;;;;;;5070352;28;20050;-69
2023/12/07 09:03:19;;;;;;;18.08;15.02;;;204.80;2252.80;;;;;;5069903;28;20060;-69
2023/12/07 09:05:44;;;;;;;19.00;14.18;;;205.00;2252.80;;;;;;5070584;28;20032;-69
2023/12/07 09:08:10;;;;;;;13.25;10.43;;;205.10;2252.80;;;;;;5070339;28;20024;-69
2023/12/07 09:10:36;;;;;;;29.45;22.88;;;205.10;2252.80;;;;;;5070862;28;20025;-69
2023/12/07 09:13:02;;;;;;;38.63;27.92;;;204.80;2252.80;;;;;;5063812;28;20048;-69
2023/12/07 09:15:28;;;;;;;26.63;13.93;;;204.80;2252.80;;;;;;5061542;28;20021;-70
2023/12/07 09:17:54;;;;;;;17.45;13.70;;;180.10;2252.80;;;;;;5070873;28;20023;-69
2023/12/07 09:20:20;;;;;;;14.00;8.80;;;179.90;2252.80;;;;;;5069851;28;20033;-69
2023/12/07 09:22:48;;;;;;;19.08;12.43;;;180.10;2252.80;;;;;;5070318;28;20032;-69
2023/12/07 09:25:15;;;;;;;13.43;9.27;;;204.80;2252.80;;;;;;5070056;28;20086;-69
2023/12/07 09:27:41;;;;;;;18.05;12.35;;;204.90;2252.80;;;;;;5070144;28;20421;-70
2023/12/07 09:30:10;;;;;;;16.55;9.38;;;180.10;2252.80;;;;;;5070044;28;20021;-69
2023/12/07 09:32:38;;;;;;;15.55;11.02;;;180.00;2252.80;;;;;;5070387;28;20082;-69
2023/12/07 09:35:08;;;;;;;153.30;105.80;;;180.00;2252.80;;;;;;5064328;28;20103;-68
2023/12/07 09:37:36;;;;;;;17.75;12.13;;;179.80;2252.80;;;;;;5062967;28;20029;-70
2023/12/07 09:40:04;;;;;;;29.25;22.40;;;179.80;2252.80;;;;;;5070024;28;20022;-68
2023/12/07 09:42:31;;;;;;;53.33;37.03;;;179.80;2252.80;;;;;;5058304;28;20025;-69
2023/12/07 09:44:57;;;;;;;47.85;31.65;;;179.80;2252.80;;;;;;5066275;28;20086;-69
2023/12/07 09:47:22;;;;;;;15.75;10.82;;;179.70;2252.80;;;;;;5069622;28;20028;-69
2023/12/07 09:49:48;;;;;;;73.45;44.10;;;179.70;2252.80;;;;;;5063187;28;20025;-71
2023/12/07 09:52:16;;;;;;;19.15;13.82;;;179.70;2252.80;;;;;;5063660;28;20509;-71
2023/12/07 09:54:43;;;;;;;16.58;11.00;;;179.80;2252.80;;;;;;5056754;28;20052;-70
2023/12/07 09:57:09;;;;;;;19.65;11.13;;;179.70;2252.80;;;;;;5069513;28;20099;-71
2023/12/07 09:59:39;;;;;;;35.15;24.08;;;179.60;2252.80;;;;;;5069615;28;20067;-71
2023/12/07 10:02:06;;;;;;;78.15;41.70;;;179.50;2252.80;;;;;;5069815;28;20020;-70
2023/12/07 10:04:31;;;;;;;27.42;17.27;;;179.50;2252.80;;;;;;5069293;28;20032;-71
2023/12/07 10:06:57;;;;;;;25.27;15.25;;;179.20;2252.80;;;;;;5068868;28;20024;-70
2023/12/07 10:09:23;;;;;;;28.25;17.13;;;179.30;2252.80;;;;;;5062218;28;20025;-71
2023/12/07 10:11:50;;;;;;;21.95;14.32;;;154.50;2252.80;;;;;;5062745;28;20086;-72
2023/12/07 10:14:15;;;;;;;20.05;13.23;;;179.30;2252.80;;;;;;5064990;28;20025;-76
2023/12/07 10:16:56;;;;;;;15.95;11.07;;;179.20;2252.80;;;;;;5069035;28;20494;-70
2023/12/07 10:19:23;;;;;;;16.35;9.32;;;179.20;2252.80;;;;;;5072275;28;20032;-72
2023/12/07 10:21:51;;;;;;;35.45;21.20;;;179.20;2252.80;;;;;;5071958;28;20033;-71
2023/12/07 10:24:22;;;;;;;11.52;7.40;;;154.50;2252.80;;;;;;5070981;28;20016;-70
2023/12/07 10:26:50;;;;;;;17.35;11.25;;;154.50;2252.80;;;;;;5069124;28;20111;-70
2023/12/07 10:29:19;;;;;;;12.80;7.32;;;179.20;2252.80;;;;;;5069574;28;20055;-70
2023/12/07 10:31:46;;;;;;;37.70;20.20;;;154.40;2252.80;;;;;;5069872;28;20024;-71
2023/12/07 10:34:13;;;;;;;22.77;13.73;;;154.30;2252.80;;;;;;5069423;28;20078;-70
2023/12/07 10:36:38;;;;;;;18.38;11.88;;;154.40;2252.80;;;;;;5069025;28;20498;-70
2023/12/07 10:39:07;;;;;;;23.83;16.15;;;154.30;2252.80;;;;;;5069059;28;20029;-71
2023/12/07 10:41:35;;;;;;;22.15;12.40;;;154.40;2252.80;;;;;;5069408;28;20458;-71
2023/12/07 10:44:03;;;;;;;25.88;16.60;;;154.30;2252.80;;;;;;5052987;28;20102;-71
2023/12/07 10:46:32;;;;;;;20.73;16.30;;;154.30;2252.80;;;;;;5067769;28;20135;-71
2023/12/07 10:49:05;;;;;;;12.95;8.80;;;154.30;2252.80;;;;;;5069236;28;20119;-70
2023/12/07 10:51:45;;;;;;;17.10;10.07;;;154.30;2252.80;;;;;;5055912;28;20049;-70
2023/12/07 10:54:15;;;;;;;14.10;10.60;;;154.30;2252.80;;;;;;5069138;28;20039;-71
2023/12/07 10:56:45;;;;;;;11.88;8.40;;;154.20;2252.80;;;;;;5069216;28;20066;-71
2023/12/07 10:59:13;;;;;;;10.55;6.93;;;154.20;2252.80;;;;;;5068794;28;20056;-71
2023/12/07 11:01:43;;;;;;;15.57;11.23;;;154.20;2252.80;;;;;;5068782;28;20028;-69
2023/12/07 11:04:13;;;;;;;9.90;6.50;;;154.30;2252.80;;;;;;5069018;28;20047;-70
2023/12/07 11:06:48;;;;;;;99.22;64.50;;;154.20;2252.80;;;;;;5068995;28;20036;-70
2023/12/07 11:09:24;;;;;;;12.05;8.45;;;154.40;2252.80;;;;;;5069025;28;20024;-68
2023/12/07 11:11:58;;;;;;;19.35;14.35;;;154.40;2252.80;;;;;;5066990;28;20021;-71
2023/12/07 11:14:24;;;;;;;10.32;7.15;;;154.30;2252.80;;;;;;5062549;28;20033;-70
2023/12/07 11:16:53;;;;;;;10.27;6.63;;;154.40;2252.80;;;;;;5063479;28;20366;-70
2023/12/07 11:19:33;;;;;;;72.82;43.25;;;154.30;2252.80;;;;;;5069082;28;20406;-70
2023/12/07 11:22:07;;;;;;;11.82;7.10;;;154.10;2252.80;;;;;;5068161;28;20029;-71
2023/12/07 11:24:33;;;;;;;20.63;12.68;;;154.20;2252.80;;;;;;5068939;28;20032;-71
2023/12/07 11:26:59;;;;;;;13.50;8.25;;;154.20;2252.80;;;;;;5071809;28;20081;-71
2023/12/07 11:29:25;;;;;;;11.07;6.80;;;154.40;2252.80;;;;;;5072411;28;20467;-71
2023/12/07 11:31:57;;;;;;;16.00;8.57;;;154.40;2252.80;;;;;;5071083;28;20029;-70
2023/12/07 11:34:36;;;;;;;10.07;7.60;;;154.20;2252.80;;;;;;5071798;28;20391;-70
2023/12/07 11:37:03;;;;;;;101.68;49.38;;;154.30;2252.80;;;;;;5059930;28;20017;-70
2023/12/07 11:39:41;;;;;;;69.22;29.95;;;154.30;2252.80;;;;;;5071294;28;20035;-70
2023/12/07 11:42:15;;;;;;;177.18;79.05;;;154.30;2252.80;;;;;;5069984;28;20021;-70
2023/12/07 11:44:42;;;;;;;97.75;47.72;;;154.30;2252.80;;;;;;5056325;28;20029;-70
2023/12/07 11:47:09;;;;;;;28.35;18.50;;;179.20;2252.80;;;;;;5072279;28;20510;-71
2023/12/07 11:49:35;;;;;;;15.85;9.88;;;179.30;2252.80;;;;;;5071189;28;20062;-70
2023/12/07 11:52:11;;;;;;;17.23;11.32;;;179.30;2252.80;;;;;;5070927;28;20048;-70